Terminal Aerodrome Forecast
Issued by NWS Grand Forks, ND

Home | Current Version | Previous Version | Graphics & Text | Print | Product List | Glossary On
Versions: 1 2 3 4 5 6 7 8 9 10 11 12 13 14 15 16 17
000
FTUS43 KFGF 031720
TAFGFK
TAF
KGFK 031720Z 0318/0418 VRB06KT 2SM FU FEW035
      TEMPO 0318/0321 3SM FU
     FM040600 17008KT 4SM FU FEW250=

USA.gov is the U.S. government's official web portal to all federal, state and local government web resources and services.